createdAt,value
2023-04-19T00:00:08.628Z,4.10
2023-04-19T00:05:08.757Z,3.97
2023-04-19T00:10:09.846Z,4.33
2023-04-19T00:15:08.711Z,3.37
2023-04-19T00:20:08.394Z,3.37
2023-04-19T00:25:08.813Z,3.70
2023-04-19T00:30:08.159Z,2.90
2023-04-19T00:35:07.025Z,3.67
2023-04-19T00:40:06.541Z,3.10
2023-04-19T00:45:07.034Z,3.10
2023-04-19T00:50:06.083Z,3.07
2023-04-19T00:55:05.712Z,2.87
2023-04-19T01:00:08.054Z,3.30
2023-04-19T01:05:06.823Z,2.60
2023-04-19T01:10:05.977Z,3.20
2023-04-19T01:15:06.181Z,2.63
2023-04-19T01:20:08.208Z,3.00
2023-04-19T01:25:10.470Z,2.53
2023-04-19T01:30:09.988Z,2.80
2023-04-19T01:35:11.327Z,3.07
2023-04-19T01:40:11.979Z,3.03
2023-04-19T01:45:11.649Z,3.10
2023-04-19T01:50:10.848Z,2.50
2023-04-19T01:55:10.824Z,2.70
2023-04-19T02:00:10.343Z,2.83
2023-04-19T02:05:14.425Z,3.03
2023-04-19T02:10:14.035Z,3.37
2023-04-19T02:15:12.706Z,3.10
2023-04-19T02:20:11.264Z,3.80
2023-04-19T02:25:10.072Z,2.70
2023-04-19T02:30:10.955Z,2.80
2023-04-19T02:35:09.962Z,2.60
2023-04-19T02:40:09.452Z,3.00
2023-04-19T02:45:10.709Z,2.77
2023-04-19T02:50:09.836Z,2.70
2023-04-19T02:55:14.844Z,2.43
2023-04-19T03:00:15.999Z,2.53
2023-04-19T03:05:23.749Z,4.70
2023-04-19T03:10:21.902Z,2.90
2023-04-19T03:15:22.349Z,2.87
2023-04-19T03:20:21.437Z,2.90
2023-04-19T03:25:20.647Z,2.70
2023-04-19T03:30:27.284Z,2.60
2023-04-19T03:35:26.512Z,2.53
2023-04-19T03:40:35.529Z,3.33
2023-04-19T03:45:35.538Z,3.40
2023-04-19T03:50:34.252Z,3.10
2023-04-19T03:55:32.684Z,3.20
2023-04-19T04:00:32.209Z,2.23
2023-04-19T04:05:33.417Z,3.03
2023-04-19T04:10:32.065Z,2.40
2023-04-19T04:15:30.671Z,2.67
2023-04-19T04:20:30.571Z,2.80
2023-04-19T04:25:37.712Z,2.80
2023-04-19T04:30:40.497Z,2.60
2023-04-19T04:35:41.677Z,2.90
2023-04-19T04:40:50.705Z,2.67
2023-04-19T04:45:49.097Z,2.70
2023-04-19T04:50:47.552Z,2.67
2023-04-19T04:55:47.305Z,2.73
2023-04-19T05:00:47.162Z,2.30
2023-04-19T05:05:45.678Z,2.83
2023-04-19T05:10:43.896Z,3.60
2023-04-19T05:15:44.988Z,3.30
2023-04-19T05:20:43.935Z,2.50
2023-04-19T05:25:51.239Z,2.53
2023-04-19T05:30:51.189Z,2.80
2023-04-19T05:35:49.547Z,2.37
2023-04-19T05:40:47.983Z,2.53
2023-04-19T05:45:46.255Z,2.80
2023-04-19T05:50:45.990Z,4.20
2023-04-19T05:56:05.782Z,2.83
2023-04-19T06:01:04.876Z,3.23
2023-04-19T06:06:05.129Z,4.20
2023-04-19T06:11:15.212Z,2.40
2023-04-19T06:16:21.742Z,2.63
2023-04-19T06:21:21.294Z,2.37
2023-04-19T06:26:19.611Z,2.33
2023-04-19T06:31:17.847Z,1.87
2023-04-19T06:36:16.142Z,2.40
2023-04-19T06:41:15.885Z,2.20
2023-04-19T06:46:16.094Z,2.50
2023-04-19T06:51:14.367Z,1.90
2023-04-19T06:56:13.420Z,2.20
2023-04-19T07:01:13.275Z,2.03
2023-04-19T07:06:11.639Z,2.27
2023-04-19T07:11:09.866Z,2.30
2023-04-19T07:16:08.521Z,2.50
2023-04-19T07:21:08.111Z,1.90
2023-04-19T07:26:06.532Z,2.23
2023-04-19T07:31:04.738Z,2.23
2023-04-19T07:36:02.924Z,2.60
2023-04-19T07:41:02.407Z,2.03
2023-04-19T07:46:00.745Z,1.97
2023-04-19T07:50:59.087Z,2.20
2023-04-19T07:55:57.244Z,1.97
2023-04-19T08:00:56.849Z,2.00
2023-04-19T08:05:54.939Z,1.87
2023-04-19T08:10:55.925Z,2.20
2023-04-19T08:20:56.835Z,2.17
2023-04-19T08:25:55.079Z,2.40
2023-04-19T08:30:53.284Z,1.87
2023-04-19T08:35:51.571Z,2.37
2023-04-19T08:40:55.187Z,2.80
2023-04-19T08:45:54.907Z,2.00
2023-04-19T08:51:04.084Z,2.60
2023-04-19T08:56:15.264Z,2.90
2023-04-19T09:01:30.955Z,2.70
2023-04-19T09:06:37.441Z,2.70
2023-04-19T09:11:39.706Z,2.63
2023-04-19T09:16:39.210Z,2.60
2023-04-19T09:21:37.977Z,2.93
2023-04-19T09:26:36.228Z,2.63
2023-04-19T09:31:51.079Z,2.53
2023-04-19T09:36:57.613Z,2.73
2023-04-19T09:42:07.217Z,2.83
2023-04-19T09:47:23.730Z,2.33
2023-04-19T09:52:22.030Z,3.13
2023-04-19T09:57:20.735Z,2.90
2023-04-19T10:02:22.009Z,2.93
2023-04-19T10:12:46.117Z,3.00
2023-04-19T10:17:44.877Z,2.93
2023-04-19T10:22:43.055Z,3.20
2023-04-19T10:27:41.867Z,3.10
2023-04-19T10:32:42.220Z,3.47
2023-04-19T10:38:03.947Z,2.23
2023-04-19T10:43:17.623Z,2.80
2023-04-19T10:48:38.178Z,2.50
2023-04-19T10:53:48.839Z,3.03
2023-04-19T10:59:24.275Z,3.63
2023-04-19T11:04:27.493Z,3.70
2023-04-19T11:09:29.127Z,3.43
2023-04-19T11:14:28.287Z,3.57
2023-04-19T11:19:26.677Z,2.73
2023-04-19T11:24:24.846Z,3.20
2023-04-19T11:29:24.518Z,3.00
2023-04-19T11:34:25.180Z,3.10
2023-04-19T11:39:23.418Z,4.50
2023-04-19T11:44:21.739Z,3.80
2023-04-19T11:49:29.029Z,3.73
2023-04-19T11:54:27.552Z,2.80
2023-04-19T11:59:25.822Z,2.90
2023-04-19T12:04:24.402Z,3.30
2023-04-19T12:09:24.370Z,3.77
2023-04-19T12:14:23.912Z,3.10
2023-04-19T12:19:22.293Z,2.33
2023-04-19T12:24:20.486Z,3.20
2023-04-19T12:29:20.028Z,2.60
2023-04-19T12:34:18.274Z,2.90
2023-04-19T12:39:16.820Z,2.80
2023-04-19T12:44:14.997Z,2.80
2023-04-19T12:49:14.969Z,3.60
2023-04-19T12:54:13.440Z,2.80
2023-04-19T12:59:12.207Z,3.23
2023-04-19T13:04:12.223Z,3.07
2023-04-19T13:09:14.892Z,3.50
2023-04-19T13:14:13.503Z,3.53
2023-04-19T13:19:11.776Z,3.37
2023-04-19T13:24:11.364Z,3.60
2023-04-19T13:29:09.661Z,3.30
2023-04-19T13:34:07.922Z,3.33
2023-04-19T13:39:08.411Z,3.80
2023-04-19T13:44:08.142Z,4.00
2023-04-19T13:49:06.402Z,3.57
2023-04-19T13:54:04.654Z,3.50
2023-04-19T13:59:03.307Z,2.93
2023-04-19T14:04:03.228Z,3.50
2023-04-19T14:09:01.652Z,3.40
2023-04-19T14:13:59.943Z,2.97
2023-04-19T14:18:58.148Z,3.10
2023-04-19T14:23:57.972Z,3.10
2023-04-19T14:28:56.067Z,3.70
2023-04-19T14:33:54.416Z,3.17
2023-04-19T14:38:53.204Z,3.40
2023-04-19T14:43:53.251Z,3.37
2023-04-19T14:48:51.436Z,3.50
2023-04-19T14:53:49.800Z,3.33
2023-04-19T14:58:48.004Z,3.40
2023-04-19T15:03:47.786Z,4.13
2023-04-19T15:08:46.910Z,4.77
2023-04-19T15:13:46.039Z,4.27
2023-04-19T15:18:44.251Z,4.97
2023-04-19T15:23:43.839Z,5.10
2023-04-19T15:28:42.254Z,5.00
2023-04-19T15:33:40.873Z,5.13
2023-04-19T15:38:39.168Z,5.10
2023-04-19T15:43:38.553Z,5.47
2023-04-19T15:48:36.920Z,4.83
2023-04-19T15:53:35.307Z,6.30
2023-04-19T15:58:33.525Z,5.53
2023-04-19T16:03:33.200Z,5.40
2023-04-19T16:08:31.632Z,6.40
2023-04-19T16:13:31.352Z,6.00
2023-04-19T16:18:29.802Z,6.00
2023-04-19T16:23:29.495Z,5.93
2023-04-19T16:28:27.564Z,5.87
2023-04-19T16:33:25.925Z,7.07
2023-04-19T16:38:23.938Z,7.00
2023-04-19T16:43:23.804Z,6.63
2023-04-19T16:48:22.528Z,5.90
2023-04-19T16:53:21.201Z,5.90
2023-04-19T16:58:19.392Z,6.77
2023-04-19T17:03:18.925Z,7.43
2023-04-19T17:08:17.258Z,9.80
2023-04-19T17:13:23.578Z,8.70
2023-04-19T17:18:22.380Z,7.50
2023-04-19T17:23:21.139Z,6.60
2023-04-19T17:28:19.391Z,6.97
2023-04-19T17:33:18.983Z,5.67
2023-04-19T17:38:17.173Z,6.00
2023-04-19T17:43:15.361Z,5.67
2023-04-19T17:48:13.671Z,6.20
2023-04-19T17:53:13.681Z,4.77
2023-04-19T17:58:11.714Z,6.27
2023-04-19T18:03:11.339Z,5.60
2023-04-19T18:08:10.495Z,5.67
2023-04-19T18:13:10.116Z,5.47
2023-04-19T18:18:08.489Z,5.40
2023-04-19T18:23:06.787Z,5.10
2023-04-19T18:28:05.414Z,6.10
2023-04-19T18:33:05.156Z,6.57
2023-04-19T18:38:03.510Z,6.10
2023-04-19T18:43:01.918Z,6.67
2023-04-19T18:48:01.805Z,7.33
2023-04-19T18:53:01.476Z,7.33
2023-04-19T18:58:01.341Z,7.13
2023-04-19T19:03:00.953Z,6.87
2023-04-19T19:08:02.638Z,7.33
2023-04-19T19:13:01.461Z,7.40
2023-04-19T19:17:59.536Z,8.37
2023-04-19T19:22:57.894Z,9.37
2023-04-19T19:28:07.450Z,7.60
2023-04-19T19:33:08.113Z,8.20
2023-04-19T19:38:06.376Z,8.60
2023-04-19T19:43:06.018Z,9.77
2023-04-19T19:48:04.249Z,9.60
2023-04-19T19:53:02.801Z,9.90
2023-04-19T19:58:32.606Z,10.13
2023-04-19T20:03:35.437Z,9.07
2023-04-19T20:08:39.304Z,11.30
2023-04-19T20:13:39.966Z,11.50
2023-04-19T20:18:40.080Z,11.83
2023-04-19T20:23:39.898Z,11.50
2023-04-19T20:28:38.711Z,12.63
2023-04-19T20:33:36.816Z,12.70
2023-04-19T20:38:36.852Z,11.10
2023-04-19T20:43:35.443Z,12.60
2023-04-19T20:48:33.749Z,11.47
2023-04-19T20:53:31.981Z,9.97
2023-04-19T20:58:32.266Z,11.20
2023-04-19T21:03:30.353Z,10.77
2023-04-19T21:08:28.872Z,11.50
2023-04-19T21:13:27.109Z,12.10
2023-04-19T21:18:29.842Z,11.07
2023-04-19T21:23:28.729Z,11.83
2023-04-19T21:28:26.745Z,10.87
2023-04-19T21:33:26.554Z,11.97
2023-04-19T21:38:24.806Z,11.13
2023-04-19T21:43:23.656Z,10.80
2023-04-19T21:48:21.884Z,10.83
2023-04-19T21:53:21.613Z,9.90
2023-04-19T21:58:19.968Z,10.07
2023-04-19T22:03:18.638Z,10.13
2023-04-19T22:08:18.158Z,10.13
2023-04-19T22:13:18.949Z,10.13
2023-04-19T22:18:17.173Z,9.43
2023-04-19T22:23:15.527Z,9.97
2023-04-19T22:28:13.867Z,11.60
2023-04-19T22:33:13.385Z,10.20
2023-04-19T22:38:11.880Z,10.40
2023-04-19T22:43:10.083Z,10.70
2023-04-19T22:48:08.304Z,10.73
2023-04-19T22:53:07.850Z,10.20
2023-04-19T22:58:06.224Z,10.13
2023-04-19T23:03:05.043Z,10.73
2023-04-19T23:08:03.981Z,10.20
2023-04-19T23:13:03.417Z,10.73
2023-04-19T23:18:03.857Z,10.50
2023-04-19T23:23:02.261Z,9.27
2023-04-19T23:28:00.511Z,9.27
2023-04-19T23:33:00.148Z,10.47
2023-04-19T23:37:58.395Z,10.03
2023-04-19T23:42:56.585Z,10.50
2023-04-19T23:47:54.604Z,9.90
2023-04-19T23:52:54.444Z,10.90
2023-04-19T23:57:52.662Z,11.17
